sensor_id;sensor_type;location;lat;lon;timestamp;P1;durP1;ratioP1;P2;durP2;ratioP2
57067;SDS011;43391;47.448;18.904;2023-08-24T00:00:33;16.85;;;14.10;;
57067;SDS011;43391;47.448;18.904;2023-08-24T00:02:59;17.73;;;14.43;;
57067;SDS011;43391;47.448;18.904;2023-08-24T00:05:24;19.67;;;14.80;;
57067;SDS011;43391;47.448;18.904;2023-08-24T00:07:49;19.20;;;14.55;;
57067;SDS011;43391;47.448;18.904;2023-08-24T00:10:16;18.20;;;14.68;;
57067;SDS011;43391;47.448;18.904;2023-08-24T00:12:43;18.83;;;14.63;;
57067;SDS011;43391;47.448;18.904;2023-08-24T00:15:08;20.38;;;14.85;;
57067;SDS011;43391;47.448;18.904;2023-08-24T00:17:35;20.23;;;15.65;;
57067;SDS011;43391;47.448;18.904;2023-08-24T00:20:02;18.75;;;14.68;;
57067;SDS011;43391;47.448;18.904;2023-08-24T00:22:29;18.95;;;14.90;;
57067;SDS011;43391;47.448;18.904;2023-08-24T00:24:55;21.17;;;15.18;;
57067;SDS011;43391;47.448;18.904;2023-08-24T00:27:20;17.75;;;14.80;;
57067;SDS011;43391;47.448;18.904;2023-08-24T00:29:45;19.23;;;14.85;;
57067;SDS011;43391;47.448;18.904;2023-08-24T00:32:11;20.83;;;14.65;;
57067;SDS011;43391;47.448;18.904;2023-08-24T00:34:36;18.60;;;14.27;;
57067;SDS011;43391;47.448;18.904;2023-08-24T00:37:02;19.45;;;14.18;;
57067;SDS011;43391;47.448;18.904;2023-08-24T00:39:27;20.45;;;13.98;;
57067;SDS011;43391;47.448;18.904;2023-08-24T00:41:53;21.20;;;14.23;;
57067;SDS011;43391;47.448;18.904;2023-08-24T00:44:19;19.70;;;15.13;;
57067;SDS011;43391;47.448;18.904;2023-08-24T00:46:45;19.02;;;15.30;;
57067;SDS011;43391;47.448;18.904;2023-08-24T00:49:10;20.20;;;15.02;;
57067;SDS011;43391;47.448;18.904;2023-08-24T00:51:36;19.25;;;13.65;;
57067;SDS011;43391;47.448;18.904;2023-08-24T00:54:02;19.95;;;14.93;;
57067;SDS011;43391;47.448;18.904;2023-08-24T00:56:27;18.83;;;14.32;;
57067;SDS011;43391;47.448;18.904;2023-08-24T00:58:54;22.70;;;14.48;;
57067;SDS011;43391;47.448;18.904;2023-08-24T01:01:21;18.38;;;14.68;;
57067;SDS011;43391;47.448;18.904;2023-08-24T01:03:47;17.40;;;13.30;;
57067;SDS011;43391;47.448;18.904;2023-08-24T01:06:12;19.45;;;14.27;;
57067;SDS011;43391;47.448;18.904;2023-08-24T01:08:37;19.38;;;14.68;;
57067;SDS011;43391;47.448;18.904;2023-08-24T01:11:12;20.73;;;14.48;;
57067;SDS011;43391;47.448;18.904;2023-08-24T01:13:59;21.23;;;14.35;;
57067;SDS011;43391;47.448;18.904;2023-08-24T01:16:28;17.67;;;14.85;;
57067;SDS011;43391;47.448;18.904;2023-08-24T01:18:59;21.48;;;15.50;;
57067;SDS011;43391;47.448;18.904;2023-08-24T01:21:26;18.20;;;14.27;;
57067;SDS011;43391;47.448;18.904;2023-08-24T01:24:12;17.98;;;14.55;;
57067;SDS011;43391;47.448;18.904;2023-08-24T01:26:42;17.02;;;14.68;;
57067;SDS011;43391;47.448;18.904;2023-08-24T01:29:08;19.38;;;15.23;;
57067;SDS011;43391;47.448;18.904;2023-08-24T01:31:35;19.38;;;15.10;;
57067;SDS011;43391;47.448;18.904;2023-08-24T01:34:01;18.35;;;14.50;;
57067;SDS011;43391;47.448;18.904;2023-08-24T01:36:26;22.85;;;14.93;;
57067;SDS011;43391;47.448;18.904;2023-08-24T01:38:54;19.23;;;14.27;;
57067;SDS011;43391;47.448;18.904;2023-08-24T01:41:25;21.02;;;14.98;;
57067;SDS011;43391;47.448;18.904;2023-08-24T01:43:53;17.95;;;14.68;;
57067;SDS011;43391;47.448;18.904;2023-08-24T01:46:22;16.27;;;14.05;;
57067;SDS011;43391;47.448;18.904;2023-08-24T01:48:50;17.77;;;14.13;;
57067;SDS011;43391;47.448;18.904;2023-08-24T01:51:17;18.17;;;14.18;;
57067;SDS011;43391;47.448;18.904;2023-08-24T01:53:44;17.95;;;13.90;;
57067;SDS011;43391;47.448;18.904;2023-08-24T01:56:11;18.65;;;13.95;;
57067;SDS011;43391;47.448;18.904;2023-08-24T01:58:37;19.30;;;14.35;;
57067;SDS011;43391;47.448;18.904;2023-08-24T02:01:03;23.42;;;15.82;;
57067;SDS011;43391;47.448;18.904;2023-08-24T02:03:29;18.92;;;14.88;;
57067;SDS011;43391;47.448;18.904;2023-08-24T02:05:55;18.50;;;14.52;;
57067;SDS011;43391;47.448;18.904;2023-08-24T02:08:21;19.55;;;14.40;;
57067;SDS011;43391;47.448;18.904;2023-08-24T02:10:46;17.15;;;13.88;;
57067;SDS011;43391;47.448;18.904;2023-08-24T02:13:11;17.70;;;14.50;;
57067;SDS011;43391;47.448;18.904;2023-08-24T02:15:37;17.30;;;13.80;;
57067;SDS011;43391;47.448;18.904;2023-08-24T02:18:04;19.75;;;14.77;;
57067;SDS011;43391;47.448;18.904;2023-08-24T02:20:29;19.65;;;15.75;;
57067;SDS011;43391;47.448;18.904;2023-08-24T02:22:55;18.88;;;14.30;;
57067;SDS011;43391;47.448;18.904;2023-08-24T02:25:20;21.05;;;15.43;;
57067;SDS011;43391;47.448;18.904;2023-08-24T02:27:45;19.35;;;14.98;;
57067;SDS011;43391;47.448;18.904;2023-08-24T02:30:11;18.05;;;14.80;;
57067;SDS011;43391;47.448;18.904;2023-08-24T02:32:37;22.15;;;15.00;;
57067;SDS011;43391;47.448;18.904;2023-08-24T02:35:02;17.15;;;13.80;;
57067;SDS011;43391;47.448;18.904;2023-08-24T02:37:28;17.13;;;13.40;;
57067;SDS011;43391;47.448;18.904;2023-08-24T02:39:53;15.75;;;12.88;;
57067;SDS011;43391;47.448;18.904;2023-08-24T02:42:19;18.85;;;14.27;;
57067;SDS011;43391;47.448;18.904;2023-08-24T02:44:44;19.88;;;14.10;;
57067;SDS011;43391;47.448;18.904;2023-08-24T02:47:09;16.73;;;13.60;;
57067;SDS011;43391;47.448;18.904;2023-08-24T02:49:35;21.15;;;14.60;;
57067;SDS011;43391;47.448;18.904;2023-08-24T02:52:00;18.13;;;14.55;;
57067;SDS011;43391;47.448;18.904;2023-08-24T02:54:25;15.73;;;13.40;;
57067;SDS011;43391;47.448;18.904;2023-08-24T02:56:51;18.27;;;13.23;;
57067;SDS011;43391;47.448;18.904;2023-08-24T02:59:16;16.35;;;13.90;;
57067;SDS011;43391;47.448;18.904;2023-08-24T03:01:41;17.60;;;14.40;;
57067;SDS011;43391;47.448;18.904;2023-08-24T03:04:07;20.13;;;13.98;;
57067;SDS011;43391;47.448;18.904;2023-08-24T03:06:32;16.55;;;14.40;;
57067;SDS011;43391;47.448;18.904;2023-08-24T03:08:59;18.30;;;13.30;;
57067;SDS011;43391;47.448;18.904;2023-08-24T03:11:25;18.85;;;14.25;;
57067;SDS011;43391;47.448;18.904;2023-08-24T03:13:50;20.50;;;14.75;;
57067;SDS011;43391;47.448;18.904;2023-08-24T03:16:16;18.25;;;14.57;;
57067;SDS011;43391;47.448;18.904;2023-08-24T03:18:41;20.20;;;14.50;;
57067;SDS011;43391;47.448;18.904;2023-08-24T03:21:06;18.75;;;13.45;;
57067;SDS011;43391;47.448;18.904;2023-08-24T03:23:32;18.90;;;14.13;;
57067;SDS011;43391;47.448;18.904;2023-08-24T03:25:57;17.88;;;13.55;;
57067;SDS011;43391;47.448;18.904;2023-08-24T03:28:23;16.70;;;12.65;;
57067;SDS011;43391;47.448;18.904;2023-08-24T03:30:50;17.15;;;12.27;;
57067;SDS011;43391;47.448;18.904;2023-08-24T03:33:17;15.57;;;13.48;;
57067;SDS011;43391;47.448;18.904;2023-08-24T03:35:42;19.48;;;13.95;;
57067;SDS011;43391;47.448;18.904;2023-08-24T03:38:08;16.05;;;12.77;;
57067;SDS011;43391;47.448;18.904;2023-08-24T03:40:33;16.92;;;13.63;;
57067;SDS011;43391;47.448;18.904;2023-08-24T03:43:00;17.58;;;14.20;;
57067;SDS011;43391;47.448;18.904;2023-08-24T03:45:26;18.15;;;13.77;;
57067;SDS011;43391;47.448;18.904;2023-08-24T03:47:51;16.77;;;13.27;;
57067;SDS011;43391;47.448;18.904;2023-08-24T03:50:17;18.88;;;13.00;;
57067;SDS011;43391;47.448;18.904;2023-08-24T03:52:42;18.60;;;13.98;;
57067;SDS011;43391;47.448;18.904;2023-08-24T03:55:08;24.52;;;14.63;;
57067;SDS011;43391;47.448;18.904;2023-08-24T03:57:33;16.10;;;13.60;;
57067;SDS011;43391;47.448;18.904;2023-08-24T03:59:59;20.73;;;14.50;;
57067;SDS011;43391;47.448;18.904;2023-08-24T04:02:25;20.95;;;14.82;;
57067;SDS011;43391;47.448;18.904;2023-08-24T04:04:52;18.90;;;14.32;;
57067;SDS011;43391;47.448;18.904;2023-08-24T04:07:17;18.27;;;14.05;;
57067;SDS011;43391;47.448;18.904;2023-08-24T04:09:43;16.35;;;13.80;;
57067;SDS011;43391;47.448;18.904;2023-08-24T04:12:08;18.02;;;14.63;;
57067;SDS011;43391;47.448;18.904;2023-08-24T04:14:33;23.30;;;14.73;;
57067;SDS011;43391;47.448;18.904;2023-08-24T04:16:59;18.92;;;14.07;;
57067;SDS011;43391;47.448;18.904;2023-08-24T04:19:25;17.77;;;13.75;;
57067;SDS011;43391;47.448;18.904;2023-08-24T04:21:50;17.08;;;14.02;;
57067;SDS011;43391;47.448;18.904;2023-08-24T04:24:15;17.95;;;13.52;;
57067;SDS011;43391;47.448;18.904;2023-08-24T04:26:41;18.63;;;14.98;;
57067;SDS011;43391;47.448;18.904;2023-08-24T04:29:06;19.30;;;14.60;;
57067;SDS011;43391;47.448;18.904;2023-08-24T04:31:31;17.63;;;13.48;;
57067;SDS011;43391;47.448;18.904;2023-08-24T04:33:57;19.75;;;13.82;;
57067;SDS011;43391;47.448;18.904;2023-08-24T04:36:22;18.80;;;13.80;;
57067;SDS011;43391;47.448;18.904;2023-08-24T04:38:47;20.63;;;13.77;;
57067;SDS011;43391;47.448;18.904;2023-08-24T04:41:13;17.70;;;13.38;;
57067;SDS011;43391;47.448;18.904;2023-08-24T04:43:38;17.08;;;14.18;;
57067;SDS011;43391;47.448;18.904;2023-08-24T04:46:04;15.73;;;12.90;;
57067;SDS011;43391;47.448;18.904;2023-08-24T04:48:29;17.58;;;13.98;;
57067;SDS011;43391;47.448;18.904;2023-08-24T04:51:00;19.77;;;13.82;;
57067;SDS011;43391;47.448;18.904;2023-08-24T04:53:26;15.40;;;12.68;;
57067;SDS011;43391;47.448;18.904;2023-08-24T04:55:52;15.98;;;13.95;;
57067;SDS011;43391;47.448;18.904;2023-08-24T04:58:18;18.40;;;13.95;;
57067;SDS011;43391;47.448;18.904;2023-08-24T05:00:43;16.83;;;13.25;;
57067;SDS011;43391;47.448;18.904;2023-08-24T05:03:09;16.58;;;13.27;;
57067;SDS011;43391;47.448;18.904;2023-08-24T05:05:35;17.85;;;13.07;;
57067;SDS011;43391;47.448;18.904;2023-08-24T05:08:02;16.98;;;13.15;;
57067;SDS011;43391;47.448;18.904;2023-08-24T05:10:31;18.70;;;12.75;;
57067;SDS011;43391;47.448;18.904;2023-08-24T05:12:58;19.52;;;13.02;;
57067;SDS011;43391;47.448;18.904;2023-08-24T05:15:24;17.48;;;12.45;;
57067;SDS011;43391;47.448;18.904;2023-08-24T05:17:49;17.45;;;12.57;;
57067;SDS011;43391;47.448;18.904;2023-08-24T05:20:17;20.77;;;13.60;;
57067;SDS011;43391;47.448;18.904;2023-08-24T05:22:43;18.83;;;11.98;;
57067;SDS011;43391;47.448;18.904;2023-08-24T05:25:09;18.52;;;13.63;;
57067;SDS011;43391;47.448;18.904;2023-08-24T05:27:34;18.45;;;13.10;;
57067;SDS011;43391;47.448;18.904;2023-08-24T05:29:59;19.92;;;13.85;;
57067;SDS011;43391;47.448;18.904;2023-08-24T05:32:25;18.35;;;14.00;;
57067;SDS011;43391;47.448;18.904;2023-08-24T05:34:50;19.15;;;13.55;;
57067;SDS011;43391;47.448;18.904;2023-08-24T05:37:16;16.75;;;12.90;;
57067;SDS011;43391;47.448;18.904;2023-08-24T05:39:41;17.23;;;13.00;;
57067;SDS011;43391;47.448;18.904;2023-08-24T05:42:07;17.83;;;12.07;;
57067;SDS011;43391;47.448;18.904;2023-08-24T05:44:33;15.75;;;12.27;;
57067;SDS011;43391;47.448;18.904;2023-08-24T05:46:59;20.20;;;12.50;;
57067;SDS011;43391;47.448;18.904;2023-08-24T05:49:24;20.08;;;13.77;;
57067;SDS011;43391;47.448;18.904;2023-08-24T05:51:50;19.20;;;14.27;;
57067;SDS011;43391;47.448;18.904;2023-08-24T05:54:16;18.08;;;14.13;;
57067;SDS011;43391;47.448;18.904;2023-08-24T05:56:43;16.13;;;13.85;;
57067;SDS011;43391;47.448;18.904;2023-08-24T05:59:09;16.70;;;13.90;;
57067;SDS011;43391;47.448;18.904;2023-08-24T06:01:35;19.25;;;13.57;;
57067;SDS011;43391;47.448;18.904;2023-08-24T06:04:05;17.88;;;13.55;;
57067;SDS011;43391;47.448;18.904;2023-08-24T06:06:31;14.63;;;12.07;;
57067;SDS011;43391;47.448;18.904;2023-08-24T06:08:56;19.52;;;14.30;;
57067;SDS011;43391;47.448;18.904;2023-08-24T06:11:22;17.67;;;12.52;;
57067;SDS011;43391;47.448;18.904;2023-08-24T06:13:47;17.60;;;13.85;;
57067;SDS011;43391;47.448;18.904;2023-08-24T06:16:13;17.85;;;14.18;;
57067;SDS011;43391;47.448;18.904;2023-08-24T06:18:38;17.08;;;13.77;;
57067;SDS011;43391;47.448;18.904;2023-08-24T06:21:04;16.60;;;11.90;;
57067;SDS011;43391;47.448;18.904;2023-08-24T06:23:29;20.02;;;13.93;;
57067;SDS011;43391;47.448;18.904;2023-08-24T06:25:54;19.33;;;14.18;;
57067;SDS011;43391;47.448;18.904;2023-08-24T06:28:20;20.70;;;13.45;;
57067;SDS011;43391;47.448;18.904;2023-08-24T06:30:45;20.13;;;13.98;;
57067;SDS011;43391;47.448;18.904;2023-08-24T06:33:12;15.07;;;12.73;;
57067;SDS011;43391;47.448;18.904;2023-08-24T06:35:37;25.30;;;18.80;;
57067;SDS011;43391;47.448;18.904;2023-08-24T06:38:03;42.70;;;29.73;;
57067;SDS011;43391;47.448;18.904;2023-08-24T06:40:28;20.77;;;15.15;;
57067;SDS011;43391;47.448;18.904;2023-08-24T06:42:55;22.80;;;14.13;;
57067;SDS011;43391;47.448;18.904;2023-08-24T06:45:21;17.55;;;13.65;;
57067;SDS011;43391;47.448;18.904;2023-08-24T06:47:46;20.33;;;13.90;;
57067;SDS011;43391;47.448;18.904;2023-08-24T06:50:12;26.85;;;17.95;;
57067;SDS011;43391;47.448;18.904;2023-08-24T06:52:37;14.07;;;11.90;;
57067;SDS011;43391;47.448;18.904;2023-08-24T06:55:03;16.60;;;12.48;;
57067;SDS011;43391;47.448;18.904;2023-08-24T06:57:30;17.30;;;11.98;;
57067;SDS011;43391;47.448;18.904;2023-08-24T06:59:55;16.13;;;12.88;;
57067;SDS011;43391;47.448;18.904;2023-08-24T07:02:21;14.75;;;11.48;;
57067;SDS011;43391;47.448;18.904;2023-08-24T07:04:46;15.93;;;12.38;;
57067;SDS011;43391;47.448;18.904;2023-08-24T07:07:11;19.33;;;12.98;;
57067;SDS011;43391;47.448;18.904;2023-08-24T07:09:37;15.90;;;11.70;;
57067;SDS011;43391;47.448;18.904;2023-08-24T07:12:02;15.90;;;10.50;;
57067;SDS011;43391;47.448;18.904;2023-08-24T07:14:31;12.23;;;10.50;;
57067;SDS011;43391;47.448;18.904;2023-08-24T07:16:56;14.95;;;10.35;;
57067;SDS011;43391;47.448;18.904;2023-08-24T07:19:22;13.70;;;11.30;;
57067;SDS011;43391;47.448;18.904;2023-08-24T07:21:47;12.68;;;9.90;;
57067;SDS011;43391;47.448;18.904;2023-08-24T07:24:13;14.55;;;10.35;;
57067;SDS011;43391;47.448;18.904;2023-08-24T07:26:39;15.07;;;10.50;;
57067;SDS011;43391;47.448;18.904;2023-08-24T07:29:06;16.10;;;10.90;;
57067;SDS011;43391;47.448;18.904;2023-08-24T07:31:31;11.98;;;10.25;;
57067;SDS011;43391;47.448;18.904;2023-08-24T07:33:57;12.25;;;9.63;;
57067;SDS011;43391;47.448;18.904;2023-08-24T07:36:23;13.13;;;9.85;;
57067;SDS011;43391;47.448;18.904;2023-08-24T07:38:48;17.80;;;11.90;;
57067;SDS011;43391;47.448;18.904;2023-08-24T07:41:14;14.73;;;10.38;;
57067;SDS011;43391;47.448;18.904;2023-08-24T07:43:39;13.27;;;10.35;;
57067;SDS011;43391;47.448;18.904;2023-08-24T07:46:05;16.23;;;10.50;;
57067;SDS011;43391;47.448;18.904;2023-08-24T07:48:30;11.73;;;10.02;;
57067;SDS011;43391;47.448;18.904;2023-08-24T07:50:56;11.70;;;10.07;;
57067;SDS011;43391;47.448;18.904;2023-08-24T07:53:21;16.15;;;10.52;;
57067;SDS011;43391;47.448;18.904;2023-08-24T07:55:47;16.05;;;11.93;;
57067;SDS011;43391;47.448;18.904;2023-08-24T07:58:12;17.58;;;11.57;;
57067;SDS011;43391;47.448;18.904;2023-08-24T08:00:37;15.40;;;11.38;;
57067;SDS011;43391;47.448;18.904;2023-08-24T08:03:03;14.38;;;11.10;;
57067;SDS011;43391;47.448;18.904;2023-08-24T08:05:29;17.08;;;11.50;;
57067;SDS011;43391;47.448;18.904;2023-08-24T08:07:54;15.40;;;10.57;;
57067;SDS011;43391;47.448;18.904;2023-08-24T08:10:20;15.23;;;11.43;;
57067;SDS011;43391;47.448;18.904;2023-08-24T08:12:46;16.80;;;12.15;;
57067;SDS011;43391;47.448;18.904;2023-08-24T08:15:11;14.27;;;11.15;;
57067;SDS011;43391;47.448;18.904;2023-08-24T08:17:37;13.63;;;11.05;;
57067;SDS011;43391;47.448;18.904;2023-08-24T08:20:02;12.18;;;10.18;;
57067;SDS011;43391;47.448;18.904;2023-08-24T08:22:28;13.93;;;10.38;;
57067;SDS011;43391;47.448;18.904;2023-08-24T08:24:54;14.80;;;10.38;;
57067;SDS011;43391;47.448;18.904;2023-08-24T08:27:21;12.02;;;9.38;;
57067;SDS011;43391;47.448;18.904;2023-08-24T08:29:46;12.68;;;9.85;;
57067;SDS011;43391;47.448;18.904;2023-08-24T08:32:12;12.35;;;8.98;;
57067;SDS011;43391;47.448;18.904;2023-08-24T08:34:37;9.95;;;8.30;;
57067;SDS011;43391;47.448;18.904;2023-08-24T08:37:03;14.70;;;9.20;;
57067;SDS011;43391;47.448;18.904;2023-08-24T08:39:28;12.90;;;9.80;;
57067;SDS011;43391;47.448;18.904;2023-08-24T08:41:54;12.52;;;9.23;;
57067;SDS011;43391;47.448;18.904;2023-08-24T08:44:20;11.38;;;8.43;;
57067;SDS011;43391;47.448;18.904;2023-08-24T08:49:14;10.98;;;8.40;;
57067;SDS011;43391;47.448;18.904;2023-08-24T08:51:41;11.68;;;8.73;;
57067;SDS011;43391;47.448;18.904;2023-08-24T08:54:06;15.05;;;9.38;;
57067;SDS011;43391;47.448;18.904;2023-08-24T08:56:32;11.93;;;9.13;;
57067;SDS011;43391;47.448;18.904;2023-08-24T08:59:01;10.05;;;8.60;;
57067;SDS011;43391;47.448;18.904;2023-08-24T09:01:27;13.35;;;8.77;;
57067;SDS011;43391;47.448;18.904;2023-08-24T09:04:12;9.82;;;8.30;;
57067;SDS011;43391;47.448;18.904;2023-08-24T09:06:38;17.08;;;8.55;;
57067;SDS011;43391;47.448;18.904;2023-08-24T09:09:04;10.05;;;8.02;;
57067;SDS011;43391;47.448;18.904;2023-08-24T09:11:30;12.20;;;7.28;;
57067;SDS011;43391;47.448;18.904;2023-08-24T09:13:55;9.88;;;8.10;;
57067;SDS011;43391;47.448;18.904;2023-08-24T09:16:21;9.77;;;8.00;;
57067;SDS011;43391;47.448;18.904;2023-08-24T09:18:47;11.40;;;7.85;;
57067;SDS011;43391;47.448;18.904;2023-08-24T09:21:15;13.48;;;7.85;;
57067;SDS011;43391;47.448;18.904;2023-08-24T09:23:45;12.75;;;8.05;;
57067;SDS011;43391;47.448;18.904;2023-08-24T09:26:16;10.13;;;7.50;;
57067;SDS011;43391;47.448;18.904;2023-08-24T09:28:51;11.23;;;7.80;;
57067;SDS011;43391;47.448;18.904;2023-08-24T09:31:17;9.40;;;7.18;;
57067;SDS011;43391;47.448;18.904;2023-08-24T09:33:42;8.57;;;6.93;;
57067;SDS011;43391;47.448;18.904;2023-08-24T09:36:10;9.85;;;7.40;;
57067;SDS011;43391;47.448;18.904;2023-08-24T09:38:45;12.07;;;7.55;;
57067;SDS011;43391;47.448;18.904;2023-08-24T09:41:17;10.85;;;7.22;;
57067;SDS011;43391;47.448;18.904;2023-08-24T09:43:42;10.63;;;7.50;;
57067;SDS011;43391;47.448;18.904;2023-08-24T09:46:08;11.05;;;7.85;;
57067;SDS011;43391;47.448;18.904;2023-08-24T09:48:33;17.73;;;10.48;;
57067;SDS011;43391;47.448;18.904;2023-08-24T09:50:59;10.05;;;7.78;;
57067;SDS011;43391;47.448;18.904;2023-08-24T09:53:28;9.48;;;7.07;;
57067;SDS011;43391;47.448;18.904;2023-08-24T09:58:23;10.75;;;6.50;;
57067;SDS011;43391;47.448;18.904;2023-08-24T10:00:49;10.48;;;7.00;;
57067;SDS011;43391;47.448;18.904;2023-08-24T10:03:15;9.48;;;6.43;;
57067;SDS011;43391;47.448;18.904;2023-08-24T10:05:46;11.30;;;7.00;;
57067;SDS011;43391;47.448;18.904;2023-08-24T10:08:15;11.27;;;6.75;;
57067;SDS011;43391;47.448;18.904;2023-08-24T10:10:43;9.25;;;6.68;;
57067;SDS011;43391;47.448;18.904;2023-08-24T10:13:11;8.43;;;6.30;;
57067;SDS011;43391;47.448;18.904;2023-08-24T10:18:14;9.83;;;6.77;;
57067;SDS011;43391;47.448;18.904;2023-08-24T10:20:41;9.48;;;6.43;;
57067;SDS011;43391;47.448;18.904;2023-08-24T10:23:08;7.30;;;6.30;;
57067;SDS011;43391;47.448;18.904;2023-08-24T10:25:35;9.75;;;6.97;;
57067;SDS011;43391;47.448;18.904;2023-08-24T10:28:02;10.15;;;7.25;;
57067;SDS011;43391;47.448;18.904;2023-08-24T10:30:29;10.15;;;8.38;;
57067;SDS011;43391;47.448;18.904;2023-08-24T10:32:55;10.77;;;6.43;;
57067;SDS011;43391;47.448;18.904;2023-08-24T10:35:22;8.18;;;6.88;;
57067;SDS011;43391;47.448;18.904;2023-08-24T10:37:51;10.23;;;7.40;;
57067;SDS011;43391;47.448;18.904;2023-08-24T10:40:33;9.68;;;7.28;;
57067;SDS011;43391;47.448;18.904;2023-08-24T10:43:03;12.18;;;6.90;;
57067;SDS011;43391;47.448;18.904;2023-08-24T10:48:24;15.07;;;7.72;;
57067;SDS011;43391;47.448;18.904;2023-08-24T10:53:46;10.68;;;7.45;;
57067;SDS011;43391;47.448;18.904;2023-08-24T10:56:14;8.00;;;6.85;;
57067;SDS011;43391;47.448;18.904;2023-08-24T10:58:43;9.90;;;7.70;;
57067;SDS011;43391;47.448;18.904;2023-08-24T11:01:19;10.38;;;7.25;;
57067;SDS011;43391;47.448;18.904;2023-08-24T11:04:04;12.38;;;7.05;;
57067;SDS011;43391;47.448;18.904;2023-08-24T11:06:31;9.55;;;7.50;;
57067;SDS011;43391;47.448;18.904;2023-08-24T11:09:05;14.90;;;7.38;;
57067;SDS011;43391;47.448;18.904;2023-08-24T11:11:38;10.85;;;7.50;;
57067;SDS011;43391;47.448;18.904;2023-08-24T11:14:13;9.15;;;7.38;;
57067;SDS011;43391;47.448;18.904;2023-08-24T11:16:47;9.23;;;7.22;;
57067;SDS011;43391;47.448;18.904;2023-08-24T11:19:14;11.23;;;7.68;;
57067;SDS011;43391;47.448;18.904;2023-08-24T11:21:41;12.20;;;8.15;;
57067;SDS011;43391;47.448;18.904;2023-08-24T11:24:14;8.35;;;7.43;;
57067;SDS011;43391;47.448;18.904;2023-08-24T11:26:47;9.73;;;7.70;;
57067;SDS011;43391;47.448;18.904;2023-08-24T11:29:13;14.27;;;7.65;;
57067;SDS011;43391;47.448;18.904;2023-08-24T11:31:40;11.70;;;7.53;;
57067;SDS011;43391;47.448;18.904;2023-08-24T11:34:06;11.10;;;8.25;;
57067;SDS011;43391;47.448;18.904;2023-08-24T11:36:53;10.48;;;7.45;;
57067;SDS011;43391;47.448;18.904;2023-08-24T11:39:19;9.65;;;7.85;;
57067;SDS011;43391;47.448;18.904;2023-08-24T11:44:26;14.10;;;8.07;;
57067;SDS011;43391;47.448;18.904;2023-08-24T11:46:52;9.45;;;8.48;;
57067;SDS011;43391;47.448;18.904;2023-08-24T11:49:17;11.00;;;8.90;;
57067;SDS011;43391;47.448;18.904;2023-08-24T11:51:43;13.57;;;8.02;;
57067;SDS011;43391;47.448;18.904;2023-08-24T11:54:08;10.52;;;7.47;;
57067;SDS011;43391;47.448;18.904;2023-08-24T11:56:41;11.63;;;8.32;;
57067;SDS011;43391;47.448;18.904;2023-08-24T11:59:09;9.90;;;7.60;;
57067;SDS011;43391;47.448;18.904;2023-08-24T12:01:37;11.85;;;8.13;;
57067;SDS011;43391;47.448;18.904;2023-08-24T12:04:04;12.20;;;8.20;;
57067;SDS011;43391;47.448;18.904;2023-08-24T12:06:29;11.55;;;7.50;;
57067;SDS011;43391;47.448;18.904;2023-08-24T12:08:55;10.70;;;7.82;;
57067;SDS011;43391;47.448;18.904;2023-08-24T12:11:21;9.82;;;7.07;;
57067;SDS011;43391;47.448;18.904;2023-08-24T12:13:50;11.48;;;7.03;;
57067;SDS011;43391;47.448;18.904;2023-08-24T12:16:21;10.18;;;7.38;;
57067;SDS011;43391;47.448;18.904;2023-08-24T12:18:55;11.20;;;7.07;;
57067;SDS011;43391;47.448;18.904;2023-08-24T12:21:22;8.38;;;6.85;;
57067;SDS011;43391;47.448;18.904;2023-08-24T12:24:02;9.20;;;6.88;;
57067;SDS011;43391;47.448;18.904;2023-08-24T12:26:31;7.88;;;6.40;;
57067;SDS011;43391;47.448;18.904;2023-08-24T12:29:00;8.10;;;6.18;;
57067;SDS011;43391;47.448;18.904;2023-08-24T12:31:28;11.13;;;6.63;;
57067;SDS011;43391;47.448;18.904;2023-08-24T12:34:06;11.25;;;6.30;;
57067;SDS011;43391;47.448;18.904;2023-08-24T12:36:36;9.60;;;6.43;;
57067;SDS011;43391;47.448;18.904;2023-08-24T12:39:06;8.40;;;6.65;;
57067;SDS011;43391;47.448;18.904;2023-08-24T12:41:33;8.13;;;6.05;;
57067;SDS011;43391;47.448;18.904;2023-08-24T12:43:58;13.88;;;6.57;;
57067;SDS011;43391;47.448;18.904;2023-08-24T12:46:24;15.27;;;6.30;;
57067;SDS011;43391;47.448;18.904;2023-08-24T12:48:50;8.50;;;6.78;;
57067;SDS011;43391;47.448;18.904;2023-08-24T12:51:16;7.30;;;6.10;;
57067;SDS011;43391;47.448;18.904;2023-08-24T12:53:42;11.25;;;6.75;;
57067;SDS011;43391;47.448;18.904;2023-08-24T12:56:07;7.20;;;5.93;;
57067;SDS011;43391;47.448;18.904;2023-08-24T12:58:33;9.48;;;6.22;;
57067;SDS011;43391;47.448;18.904;2023-08-24T13:00:59;8.30;;;6.35;;
57067;SDS011;43391;47.448;18.904;2023-08-24T13:03:24;8.30;;;6.38;;
57067;SDS011;43391;47.448;18.904;2023-08-24T13:05:50;8.60;;;6.70;;
57067;SDS011;43391;47.448;18.904;2023-08-24T13:08:15;11.48;;;6.20;;
57067;SDS011;43391;47.448;18.904;2023-08-24T13:10:40;7.95;;;5.88;;
57067;SDS011;43391;47.448;18.904;2023-08-24T13:13:06;8.13;;;6.35;;
57067;SDS011;43391;47.448;18.904;2023-08-24T13:15:32;9.45;;;5.80;;
57067;SDS011;43391;47.448;18.904;2023-08-24T13:17:57;10.65;;;6.35;;
57067;SDS011;43391;47.448;18.904;2023-08-24T13:20:23;10.32;;;6.45;;
57067;SDS011;43391;47.448;18.904;2023-08-24T13:22:50;8.30;;;6.55;;
57067;SDS011;43391;47.448;18.904;2023-08-24T13:25:16;8.60;;;6.22;;
57067;SDS011;43391;47.448;18.904;2023-08-24T13:27:41;9.98;;;6.40;;
57067;SDS011;43391;47.448;18.904;2023-08-24T13:30:07;8.45;;;6.47;;
57067;SDS011;43391;47.448;18.904;2023-08-24T13:32:32;10.60;;;7.18;;
57067;SDS011;43391;47.448;18.904;2023-08-24T13:34:59;9.65;;;6.60;;
57067;SDS011;43391;47.448;18.904;2023-08-24T13:37:24;9.05;;;6.40;;
57067;SDS011;43391;47.448;18.904;2023-08-24T13:39:50;7.35;;;6.28;;
57067;SDS011;43391;47.448;18.904;2023-08-24T13:42:16;13.63;;;7.03;;
57067;SDS011;43391;47.448;18.904;2023-08-24T13:44:42;12.18;;;6.68;;
57067;SDS011;43391;47.448;18.904;2023-08-24T13:47:08;9.95;;;6.68;;
57067;SDS011;43391;47.448;18.904;2023-08-24T13:49:33;11.10;;;7.10;;
57067;SDS011;43391;47.448;18.904;2023-08-24T13:51:58;9.65;;;5.88;;
57067;SDS011;43391;47.448;18.904;2023-08-24T13:54:24;8.85;;;5.85;;
57067;SDS011;43391;47.448;18.904;2023-08-24T13:56:51;13.33;;;7.37;;
57067;SDS011;43391;47.448;18.904;2023-08-24T13:59:18;7.88;;;6.82;;
57067;SDS011;43391;47.448;18.904;2023-08-24T14:01:44;11.52;;;6.72;;
57067;SDS011;43391;47.448;18.904;2023-08-24T14:04:10;10.10;;;6.72;;
57067;SDS011;43391;47.448;18.904;2023-08-24T14:06:35;8.85;;;6.47;;
57067;SDS011;43391;47.448;18.904;2023-08-24T14:09:02;9.30;;;6.03;;
57067;SDS011;43391;47.448;18.904;2023-08-24T14:11:28;9.50;;;6.35;;
57067;SDS011;43391;47.448;18.904;2023-08-24T14:13:54;16.17;;;6.30;;
57067;SDS011;43391;47.448;18.904;2023-08-24T14:16:20;9.48;;;6.20;;
57067;SDS011;43391;47.448;18.904;2023-08-24T14:18:45;10.57;;;6.32;;
57067;SDS011;43391;47.448;18.904;2023-08-24T14:21:11;14.75;;;7.03;;
57067;SDS011;43391;47.448;18.904;2023-08-24T14:23:37;8.32;;;6.43;;
57067;SDS011;43391;47.448;18.904;2023-08-24T14:26:02;12.43;;;6.38;;
57067;SDS011;43391;47.448;18.904;2023-08-24T14:28:46;7.05;;;5.80;;